sensor_id;sensor_type;location;lat;lon;timestamp;pressure;altitude;pressure_sealevel;temperature;humidity
71917;BME280;59793;46.506;6.674;2023-02-28T00:02:24;97265.56;;;1.85;61.01
71917;BME280;59793;46.506;6.674;2023-02-28T00:04:49;97272.78;;;1.88;60.97
71917;BME280;59793;46.506;6.674;2023-02-28T00:07:18;97262.00;;;1.76;61.19
71917;BME280;59793;46.506;6.674;2023-02-28T00:09:44;97253.31;;;1.67;61.38
71917;BME280;59793;46.506;6.674;2023-02-28T00:12:09;97268.16;;;1.85;61.13
71917;BME280;59793;46.506;6.674;2023-02-28T00:14:40;97265.56;;;1.85;61.24
71917;BME280;59793;46.506;6.674;2023-02-28T00:17:05;97249.31;;;1.75;61.14
71917;BME280;59793;46.506;6.674;2023-02-28T00:19:30;97268.78;;;1.77;61.03
71917;BME280;59793;46.506;6.674;2023-02-28T00:21:56;97284.25;;;1.87;61.07
71917;BME280;59793;46.506;6.674;2023-02-28T00:24:21;97232.00;;;1.46;61.56
71917;BME280;59793;46.506;6.674;2023-02-28T00:26:47;97261.56;;;1.69;61.15
71917;BME280;59793;46.506;6.674;2023-02-28T00:29:12;97260.25;;;1.72;61.41
71917;BME280;59793;46.506;6.674;2023-02-28T00:31:37;97272.84;;;1.83;61.51
71917;BME280;59793;46.506;6.674;2023-02-28T00:34:03;97261.69;;;1.83;61.26
71917;BME280;59793;46.506;6.674;2023-02-28T00:36:28;97258.31;;;1.82;61.30
71917;BME280;59793;46.506;6.674;2023-02-28T00:38:53;97283.00;;;2.04;60.28
71917;BME280;59793;46.506;6.674;2023-02-28T00:41:19;97259.25;;;1.91;60.23
71917;BME280;59793;46.506;6.674;2023-02-28T00:43:44;97243.66;;;1.91;60.15
71917;BME280;59793;46.506;6.674;2023-02-28T00:46:09;97257.75;;;1.85;60.81
71917;BME280;59793;46.506;6.674;2023-02-28T00:48:35;97255.72;;;1.82;61.08
71917;BME280;59793;46.506;6.674;2023-02-28T00:51:01;97279.22;;;2.15;60.48
71917;BME280;59793;46.506;6.674;2023-02-28T00:53:27;97272.03;;;2.07;60.41
71917;BME280;59793;46.506;6.674;2023-02-28T00:55:53;97268.94;;;2.05;60.29
71917;BME280;59793;46.506;6.674;2023-02-28T00:58:18;97243.66;;;1.91;60.30
71917;BME280;59793;46.506;6.674;2023-02-28T01:00:44;97235.66;;;1.88;60.30
71917;BME280;59793;46.506;6.674;2023-02-28T01:03:14;97251.81;;;2.04;60.08
71917;BME280;59793;46.506;6.674;2023-02-28T01:05:40;97239.03;;;2.07;59.80
71917;BME280;59793;46.506;6.674;2023-02-28T01:08:06;97283.16;;;2.31;60.19
71917;BME280;59793;46.506;6.674;2023-02-28T01:10:32;97274.31;;;2.32;60.07
71917;BME280;59793;46.506;6.674;2023-02-28T01:12:57;97251.59;;;2.00;60.30
71917;BME280;59793;46.506;6.674;2023-02-28T01:15:23;97274.22;;;2.19;60.33
71917;BME280;59793;46.506;6.674;2023-02-28T01:17:49;97249.06;;;1.95;60.38
71917;BME280;59793;46.506;6.674;2023-02-28T01:20:14;97261.22;;;2.00;60.67
71917;BME280;59793;46.506;6.674;2023-02-28T01:22:40;97188.06;;;1.50;60.21
71917;BME280;59793;46.506;6.674;2023-02-28T01:25:05;97266.72;;;2.17;60.31
71917;BME280;59793;46.506;6.674;2023-02-28T01:27:31;97246.63;;;2.04;60.05
71917;BME280;59793;46.506;6.674;2023-02-28T01:29:56;97247.47;;;1.99;60.66
71917;BME280;59793;46.506;6.674;2023-02-28T01:32:22;97268.22;;;2.23;59.62
71917;BME280;59793;46.506;6.674;2023-02-28T01:34:47;97255.34;;;2.13;59.72
71917;BME280;59793;46.506;6.674;2023-02-28T01:37:12;97206.53;;;1.91;59.59
71917;BME280;59793;46.506;6.674;2023-02-28T01:39:38;97282.88;;;2.33;59.44
71917;BME280;59793;46.506;6.674;2023-02-28T01:42:03;97265.59;;;2.23;59.41
71917;BME280;59793;46.506;6.674;2023-02-28T01:44:59;97273.94;;;2.39;59.65
71917;BME280;59793;46.506;6.674;2023-02-28T01:47:41;97276.19;;;2.46;58.98
71917;BME280;59793;46.506;6.674;2023-02-28T01:50:13;97277.28;;;2.45;59.13
71917;BME280;59793;46.506;6.674;2023-02-28T01:52:40;97282.31;;;2.55;58.97
71917;BME280;59793;46.506;6.674;2023-02-28T01:55:07;97255.75;;;2.39;58.38
71917;BME280;59793;46.506;6.674;2023-02-28T01:57:40;97253.81;;;2.31;58.75
71917;BME280;59793;46.506;6.674;2023-02-28T02:00:10;97281.91;;;2.48;58.75
71917;BME280;59793;46.506;6.674;2023-02-28T02:02:41;97288.22;;;2.42;59.57
71917;BME280;59793;46.506;6.674;2023-02-28T02:05:20;97265.09;;;2.40;58.51
71917;BME280;59793;46.506;6.674;2023-02-28T02:07:49;97278.72;;;2.32;59.53
71917;BME280;59793;46.506;6.674;2023-02-28T02:10:19;97264.84;;;2.23;59.39
71917;BME280;59793;46.506;6.674;2023-02-28T02:15:46;97276.84;;;2.37;59.83
71917;BME280;59793;46.506;6.674;2023-02-28T02:18:17;97268.75;;;2.39;59.43
71917;BME280;59793;46.506;6.674;2023-02-28T02:30:00;97235.09;;;2.10;59.64
71917;BME280;59793;46.506;6.674;2023-02-28T02:32:57;97270.03;;;2.42;59.19
71917;BME280;59793;46.506;6.674;2023-02-28T02:35:37;97266.09;;;2.44;58.84
71917;BME280;59793;46.506;6.674;2023-02-28T02:38:11;97273.03;;;2.49;58.97
71917;BME280;59793;46.506;6.674;2023-02-28T02:40:50;97275.13;;;2.47;58.80
71917;BME280;59793;46.506;6.674;2023-02-28T02:43:51;97268.06;;;2.52;58.55
71917;BME280;59793;46.506;6.674;2023-02-28T02:46:26;97234.41;;;2.23;59.34
71917;BME280;59793;46.506;6.674;2023-02-28T02:48:55;97221.47;;;1.99;59.46
71917;BME280;59793;46.506;6.674;2023-02-28T02:51:24;97268.63;;;2.30;59.62
71917;BME280;59793;46.506;6.674;2023-02-28T02:54:03;97271.28;;;2.44;59.15
71917;BME280;59793;46.506;6.674;2023-02-28T02:56:32;97265.44;;;2.52;58.96
71917;BME280;59793;46.506;6.674;2023-02-28T02:59:06;97277.13;;;2.55;58.80
71917;BME280;59793;46.506;6.674;2023-02-28T03:01:34;97276.41;;;2.49;58.89
71917;BME280;59793;46.506;6.674;2023-02-28T03:04:05;97267.75;;;2.54;58.60
71917;BME280;59793;46.506;6.674;2023-02-28T03:06:32;97244.38;;;2.35;59.04
71917;BME280;59793;46.506;6.674;2023-02-28T03:08:57;97251.53;;;2.43;58.70
71917;BME280;59793;46.506;6.674;2023-02-28T03:11:24;97258.50;;;2.48;59.18
71917;BME280;59793;46.506;6.674;2023-02-28T03:22:20;97266.72;;;2.55;58.88
71917;BME280;59793;46.506;6.674;2023-02-28T03:27:24;97271.91;;;2.74;58.49
71917;BME280;59793;46.506;6.674;2023-02-28T03:30:06;97267.06;;;2.48;59.53
71917;BME280;59793;46.506;6.674;2023-02-28T03:32:57;97264.13;;;2.36;59.65
71917;BME280;59793;46.506;6.674;2023-02-28T03:35:26;97268.09;;;2.47;59.93
71917;BME280;59793;46.506;6.674;2023-02-28T03:38:00;97274.50;;;2.36;60.07
71917;BME280;59793;46.506;6.674;2023-02-28T03:40:32;97239.63;;;2.23;59.17
71917;BME280;59793;46.506;6.674;2023-02-28T03:43:04;97269.53;;;2.39;59.62
71917;BME280;59793;46.506;6.674;2023-02-28T03:45:36;97244.16;;;2.31;59.75
71917;BME280;59793;46.506;6.674;2023-02-28T03:48:20;97274.16;;;2.61;59.50
71917;BME280;59793;46.506;6.674;2023-02-28T03:50:49;97269.53;;;2.39;59.60
71917;BME280;59793;46.506;6.674;2023-02-28T03:56:17;97260.69;;;2.41;59.36
71917;BME280;59793;46.506;6.674;2023-02-28T03:58:51;97268.63;;;2.49;59.69
71917;BME280;59793;46.506;6.674;2023-02-28T04:01:23;97277.59;;;2.57;59.38
71917;BME280;59793;46.506;6.674;2023-02-28T04:03:50;97255.06;;;2.33;59.50
71917;BME280;59793;46.506;6.674;2023-02-28T04:06:18;97270.09;;;2.36;59.80
71917;BME280;59793;46.506;6.674;2023-02-28T04:08:44;97227.56;;;2.08;59.90
71917;BME280;59793;46.506;6.674;2023-02-28T04:11:33;97269.25;;;2.60;59.51
71917;BME280;59793;46.506;6.674;2023-02-28T04:13:59;97280.31;;;2.84;58.57
71917;BME280;59793;46.506;6.674;2023-02-28T04:16:25;97279.28;;;2.67;58.92
71917;BME280;59793;46.506;6.674;2023-02-28T04:18:50;97239.47;;;2.33;59.16
71917;BME280;59793;46.506;6.674;2023-02-28T04:21:16;97267.63;;;2.45;59.47
71917;BME280;59793;46.506;6.674;2023-02-28T04:23:45;97245.72;;;2.32;59.62
71917;BME280;59793;46.506;6.674;2023-02-28T04:26:11;97282.84;;;2.71;59.04
71917;BME280;59793;46.506;6.674;2023-02-28T04:28:37;97258.41;;;2.53;58.91
71917;BME280;59793;46.506;6.674;2023-02-28T04:31:04;97286.38;;;2.61;58.97
71917;BME280;59793;46.506;6.674;2023-02-28T04:33:31;97291.38;;;2.76;59.14
71917;BME280;59793;46.506;6.674;2023-02-28T04:36:02;97272.34;;;2.62;59.62
71917;BME280;59793;46.506;6.674;2023-02-28T04:38:33;97266.41;;;2.75;58.30
71917;BME280;59793;46.506;6.674;2023-02-28T04:40:59;97274.28;;;2.70;59.07
71917;BME280;59793;46.506;6.674;2023-02-28T04:43:29;97285.19;;;2.72;58.93
71917;BME280;59793;46.506;6.674;2023-02-28T04:45:55;97280.41;;;2.79;58.51
71917;BME280;59793;46.506;6.674;2023-02-28T04:48:27;97273.78;;;2.68;58.70
71917;BME280;59793;46.506;6.674;2023-02-28T04:50:52;97220.88;;;2.26;58.81
71917;BME280;59793;46.506;6.674;2023-02-28T04:53:18;97289.81;;;2.75;59.08
71917;BME280;59793;46.506;6.674;2023-02-28T04:55:44;97292.34;;;2.80;58.68
71917;BME280;59793;46.506;6.674;2023-02-28T04:58:10;97279.44;;;2.56;58.92
71917;BME280;59793;46.506;6.674;2023-02-28T05:00:35;97297.19;;;2.68;59.51
71917;BME280;59793;46.506;6.674;2023-02-28T05:03:01;97283.97;;;2.64;59.59
71917;BME280;59793;46.506;6.674;2023-02-28T05:05:26;97298.19;;;2.72;59.86
71917;BME280;59793;46.506;6.674;2023-02-28T05:07:51;97234.84;;;2.30;60.08
71917;BME280;59793;46.506;6.674;2023-02-28T05:10:18;97291.44;;;2.71;58.53
71917;BME280;59793;46.506;6.674;2023-02-28T05:12:44;97293.97;;;2.76;59.40
71917;BME280;59793;46.506;6.674;2023-02-28T05:15:12;97309.25;;;2.97;58.17
71917;BME280;59793;46.506;6.674;2023-02-28T05:17:39;97278.09;;;2.59;58.19
71917;BME280;59793;46.506;6.674;2023-02-28T05:20:05;97298.63;;;2.60;58.55
71917;BME280;59793;46.506;6.674;2023-02-28T05:22:30;97314.00;;;2.57;58.64
71917;BME280;59793;46.506;6.674;2023-02-28T05:24:56;97273.31;;;2.28;59.66
71917;BME280;59793;46.506;6.674;2023-02-28T05:27:21;97296.09;;;2.36;59.77
71917;BME280;59793;46.506;6.674;2023-02-28T05:29:46;97270.03;;;2.42;59.05
71917;BME280;59793;46.506;6.674;2023-02-28T05:32:12;97311.13;;;2.77;58.47
71917;BME280;59793;46.506;6.674;2023-02-28T05:34:38;97317.94;;;2.73;59.20
71917;BME280;59793;46.506;6.674;2023-02-28T05:37:05;97295.34;;;2.55;59.45
71917;BME280;59793;46.506;6.674;2023-02-28T05:39:32;97240.44;;;2.19;59.55
71917;BME280;59793;46.506;6.674;2023-02-28T05:41:58;97307.19;;;2.61;59.28
71917;BME280;59793;46.506;6.674;2023-02-28T05:44:24;97275.22;;;2.42;59.02
71917;BME280;59793;46.506;6.674;2023-02-28T05:46:49;97304.88;;;2.59;59.12
71917;BME280;59793;46.506;6.674;2023-02-28T05:49:15;97301.16;;;2.47;58.68
71917;BME280;59793;46.506;6.674;2023-02-28T05:51:40;97302.41;;;2.30;59.40
71917;BME280;59793;46.506;6.674;2023-02-28T05:54:06;97323.34;;;2.39;59.48
71917;BME280;59793;46.506;6.674;2023-02-28T05:56:32;97312.59;;;2.27;59.71
71917;BME280;59793;46.506;6.674;2023-02-28T05:58:59;97269.53;;;2.02;59.78
71917;BME280;59793;46.506;6.674;2023-02-28T06:01:42;97305.63;;;2.22;60.15
71917;BME280;59793;46.506;6.674;2023-02-28T06:04:13;97317.25;;;2.30;60.33
71917;BME280;59793;46.506;6.674;2023-02-28T06:06:43;97308.31;;;2.17;60.21
71917;BME280;59793;46.506;6.674;2023-02-28T06:09:09;97318.56;;;2.27;60.03
71917;BME280;59793;46.506;6.674;2023-02-28T06:11:35;97279.63;;;2.03;60.39
71917;BME280;59793;46.506;6.674;2023-02-28T06:14:01;97307.63;;;2.30;60.08
71917;BME280;59793;46.506;6.674;2023-02-28T06:16:28;97322.50;;;2.44;60.03
71917;BME280;59793;46.506;6.674;2023-02-28T06:18:54;97280.91;;;2.06;60.19
71917;BME280;59793;46.506;6.674;2023-02-28T06:21:23;97306.63;;;2.26;60.16
71917;BME280;59793;46.506;6.674;2023-02-28T06:23:49;97295.38;;;2.31;59.42
71917;BME280;59793;46.506;6.674;2023-02-28T06:26:14;97283.72;;;2.28;59.63
71917;BME280;59793;46.506;6.674;2023-02-28T06:28:40;97333.91;;;2.67;59.14
71917;BME280;59793;46.506;6.674;2023-02-28T06:31:10;97348.53;;;2.62;59.43
71917;BME280;59793;46.506;6.674;2023-02-28T06:33:37;97265.00;;;2.07;59.69
71917;BME280;59793;46.506;6.674;2023-02-28T06:36:04;97322.50;;;2.44;59.20
71917;BME280;59793;46.506;6.674;2023-02-28T06:38:30;97323.50;;;2.48;59.07
71917;BME280;59793;46.506;6.674;2023-02-28T06:40:58;97352.13;;;2.67;59.21
71917;BME280;59793;46.506;6.674;2023-02-28T06:43:24;97324.34;;;2.43;59.16
71917;BME280;59793;46.506;6.674;2023-02-28T06:45:50;97285.03;;;2.26;59.02
71917;BME280;59793;46.506;6.674;2023-02-28T06:48:16;97351.97;;;2.77;58.60
71917;BME280;59793;46.506;6.674;2023-02-28T06:50:41;97361.19;;;2.88;58.29
71917;BME280;59793;46.506;6.674;2023-02-28T06:53:06;97357.38;;;2.80;58.48
71917;BME280;59793;46.506;6.674;2023-02-28T06:55:32;97340.00;;;2.57;58.44
71917;BME280;59793;46.506;6.674;2023-02-28T06:57:58;97331.31;;;2.48;58.36
71917;BME280;59793;46.506;6.674;2023-02-28T07:00:23;97362.88;;;2.60;59.05
71917;BME280;59793;46.506;6.674;2023-02-28T07:02:50;97352.31;;;2.70;59.00
71917;BME280;59793;46.506;6.674;2023-02-28T07:05:15;97355.56;;;2.81;58.86
71917;BME280;59793;46.506;6.674;2023-02-28T07:07:40;97339.63;;;2.69;58.49
71917;BME280;59793;46.506;6.674;2023-02-28T07:10:12;97327.78;;;2.57;58.66
71917;BME280;59793;46.506;6.674;2023-02-28T07:12:39;97327.91;;;2.47;58.54
71917;BME280;59793;46.506;6.674;2023-02-28T07:15:05;97352.66;;;2.63;58.43
71917;BME280;59793;46.506;6.674;2023-02-28T07:17:31;97332.78;;;2.54;59.01
71917;BME280;59793;46.506;6.674;2023-02-28T07:19:56;97298.34;;;2.24;58.57
71917;BME280;59793;46.506;6.674;2023-02-28T07:22:22;97280.69;;;2.40;57.72
71917;BME280;59793;46.506;6.674;2023-02-28T07:24:47;97353.94;;;2.85;57.77
71917;BME280;59793;46.506;6.674;2023-02-28T07:27:13;97364.44;;;2.80;58.17
71917;BME280;59793;46.506;6.674;2023-02-28T07:29:51;97344.09;;;2.44;58.98
71917;BME280;59793;46.506;6.674;2023-02-28T07:32:17;97315.00;;;2.23;59.50
71917;BME280;59793;46.506;6.674;2023-02-28T07:34:44;97306.78;;;2.35;58.59
71917;BME280;59793;46.506;6.674;2023-02-28T07:37:09;97344.56;;;2.46;58.48
71917;BME280;59793;46.506;6.674;2023-02-28T07:39:34;97373.63;;;2.72;59.19
71917;BME280;59793;46.506;6.674;2023-02-28T07:42:00;97375.75;;;2.70;59.35
71917;BME280;59793;46.506;6.674;2023-02-28T07:44:27;97343.81;;;2.64;58.97
71917;BME280;59793;46.506;6.674;2023-02-28T07:46:52;97350.22;;;2.72;58.44
71917;BME280;59793;46.506;6.674;2023-02-28T07:49:18;97372.50;;;2.97;58.55
71917;BME280;59793;46.506;6.674;2023-02-28T07:51:43;97346.34;;;2.88;58.56
71917;BME280;59793;46.506;6.674;2023-02-28T07:54:09;97370.09;;;3.01;58.36
71917;BME280;59793;46.506;6.674;2023-02-28T07:56:34;97345.78;;;2.92;58.24
71917;BME280;59793;46.506;6.674;2023-02-28T07:59:00;97366.75;;;3.14;57.80
71917;BME280;59793;46.506;6.674;2023-02-28T08:01:26;97373.47;;;3.01;57.51
71917;BME280;59793;46.506;6.674;2023-02-28T08:03:52;97354.84;;;2.75;57.94
71917;BME280;59793;46.506;6.674;2023-02-28T08:06:22;97377.50;;;2.94;58.25
71917;BME280;59793;46.506;6.674;2023-02-28T08:08:48;97359.91;;;2.85;58.55
71917;BME280;59793;46.506;6.674;2023-02-28T08:11:15;97371.44;;;2.98;58.29
71917;BME280;59793;46.506;6.674;2023-02-28T08:13:41;97373.34;;;2.93;58.09
71917;BME280;59793;46.506;6.674;2023-02-28T08:16:09;97373.97;;;3.03;57.84
71917;BME280;59793;46.506;6.674;2023-02-28T08:18:34;97376.50;;;2.90;58.62
71917;BME280;59793;46.506;6.674;2023-02-28T08:21:06;97362.56;;;3.18;57.05
71917;BME280;59793;46.506;6.674;2023-02-28T08:23:31;97381.66;;;3.27;57.21
71917;BME280;59793;46.506;6.674;2023-02-28T08:25:58;97383.63;;;3.35;58.14
71917;BME280;59793;46.506;6.674;2023-02-28T08:28:24;97321.53;;;3.10;57.95
71917;BME280;59793;46.506;6.674;2023-02-28T08:30:49;97366.91;;;3.69;57.19
71917;BME280;59793;46.506;6.674;2023-02-28T08:33:15;97369.03;;;3.81;56.36
71917;BME280;59793;46.506;6.674;2023-02-28T08:35:40;97370.84;;;3.53;56.38
71917;BME280;59793;46.506;6.674;2023-02-28T08:38:05;97381.84;;;3.64;56.54
71917;BME280;59793;46.506;6.674;2023-02-28T08:40:31;97382.34;;;3.66;56.68
71917;BME280;59793;46.506;6.674;2023-02-28T08:42:56;97350.50;;;3.55;56.39
71917;BME280;59793;46.506;6.674;2023-02-28T08:45:22;97358.41;;;3.77;55.81
71917;BME280;59793;46.506;6.674;2023-02-28T08:47:47;97377.56;;;3.87;55.86
71917;BME280;59793;46.506;6.674;2023-02-28T08:50:12;97376.97;;;3.76;56.07
71917;BME280;59793;46.506;6.674;2023-02-28T08:52:41;97388.84;;;3.82;56.46
71917;BME280;59793;46.506;6.674;2023-02-28T08:55:07;97297.22;;;3.33;56.00
71917;BME280;59793;46.506;6.674;2023-02-28T08:57:34;97342.34;;;3.43;56.76
71917;BME280;59793;46.506;6.674;2023-02-28T09:00:00;97387.69;;;4.02;55.31
71917;BME280;59793;46.506;6.674;2023-02-28T09:02:32;97395.91;;;4.09;55.45
71917;BME280;59793;46.506;6.674;2023-02-28T09:04:58;97398.72;;;4.26;55.41
71917;BME280;59793;46.506;6.674;2023-02-28T09:07:23;97389.72;;;4.19;55.42
71917;BME280;59793;46.506;6.674;2023-02-28T09:09:49;97395.50;;;4.43;54.35
71917;BME280;59793;46.506;6.674;2023-02-28T09:12:25;97331.72;;;3.99;54.62
71917;BME280;59793;46.506;6.674;2023-02-28T09:14:51;97399.06;;;4.61;54.84
71917;BME280;59793;46.506;6.674;2023-02-28T09:17:17;97398.38;;;4.55;55.42
71917;BME280;59793;46.506;6.674;2023-02-28T09:19:42;97368.28;;;4.36;53.72
71917;BME280;59793;46.506;6.674;2023-02-28T09:22:09;97361.41;;;4.40;54.81
71917;BME280;59793;46.506;6.674;2023-02-28T09:24:35;97390.91;;;4.76;53.48
71917;BME280;59793;46.506;6.674;2023-02-28T09:27:01;97353.13;;;4.74;53.00
71917;BME280;59793;46.506;6.674;2023-02-28T09:29:26;97369.56;;;4.74;53.04
71917;BME280;59793;46.506;6.674;2023-02-28T09:31:52;97381.09;;;4.96;52.79
71917;BME280;59793;46.506;6.674;2023-02-28T09:34:17;97375.06;;;5.09;52.67
71917;BME280;59793;46.506;6.674;2023-02-28T09:36:43;97364.53;;;5.00;51.89
71917;BME280;59793;46.506;6.674;2023-02-28T09:39:08;97313.44;;;4.63;51.46
71917;BME280;59793;46.506;6.674;2023-02-28T09:41:53;97397.44;;;5.24;51.72
71917;BME280;59793;46.506;6.674;2023-02-28T09:47:00;97363.81;;;5.09;51.67
71917;BME280;59793;46.506;6.674;2023-02-28T09:49:34;97405.25;;;5.46;50.78
71917;BME280;59793;46.506;6.674;2023-02-28T09:52:10;97412.97;;;5.74;50.15
71917;BME280;59793;46.506;6.674;2023-02-28T09:54:37;97382.31;;;5.97;50.91
71917;BME280;59793;46.506;6.674;2023-02-28T09:57:39;97408.09;;;6.61;49.53
71917;BME280;59793;46.506;6.674;2023-02-28T10:00:15;97342.16;;;6.50;48.61
71917;BME280;59793;46.506;6.674;2023-02-28T10:03:01;97371.28;;;6.57;48.18
71917;BME280;59793;46.506;6.674;2023-02-28T10:05:35;97360.06;;;6.83;49.79
71917;BME280;59793;46.506;6.674;2023-02-28T10:08:05;97400.94;;;8.21;46.39
71917;BME280;59793;46.506;6.674;2023-02-28T10:10:55;97408.13;;;8.33;45.60
71917;BME280;59793;46.506;6.674;2023-02-28T10:13:33;97398.94;;;7.71;45.87
71917;BME280;59793;46.506;6.674;2023-02-28T10:16:16;97415.56;;;7.84;46.02
71917;BME280;59793;46.506;6.674;2023-02-28T10:18:52;97378.59;;;7.59;45.85
71917;BME280;59793;46.506;6.674;2023-02-28T10:21:36;97401.03;;;7.95;46.58
71917;BME280;59793;46.506;6.674;2023-02-28T10:24:28;97399.53;;;7.77;45.38
71917;BME280;59793;46.506;6.674;2023-02-28T10:26:59;97397.03;;;7.25;45.91
71917;BME280;59793;46.506;6.674;2023-02-28T10:29:27;97407.78;;;6.62;47.54
71917;BME280;59793;46.506;6.674;2023-02-28T10:31:53;97402.88;;;5.90;49.33
71917;BME280;59793;46.506;6.674;2023-02-28T10:34:18;97417.81;;;5.89;49.85
71917;BME280;59793;46.506;6.674;2023-02-28T10:36:44;97415.34;;;6.15;49.32
71917;BME280;59793;46.506;6.674;2023-02-28T10:39:46;97424.69;;;6.47;49.89
71917;BME280;59793;46.506;6.674;2023-02-28T10:42:36;97426.41;;;6.69;48.82
71917;BME280;59793;46.506;6.674;2023-02-28T10:47:34;97375.13;;;6.60;48.76
71917;BME280;59793;46.506;6.674;2023-02-28T10:50:01;97419.50;;;6.91;47.31
71917;BME280;59793;46.506;6.674;2023-02-28T10:52:37;97423.19;;;6.73;46.88
71917;BME280;59793;46.506;6.674;2023-02-28T10:55:22;97427.06;;;6.84;46.83
71917;BME280;59793;46.506;6.674;2023-02-28T10:57:49;97425.38;;;7.40;46.96
71917;BME280;59793;46.506;6.674;2023-02-28T11:00:21;97421.66;;;7.41;46.53
71917;BME280;59793;46.506;6.674;2023-02-28T11:02:48;97406.22;;;7.48;45.62
71917;BME280;59793;46.506;6.674;2023-02-28T11:05:33;97436.31;;;7.33;48.17
71917;BME280;59793;46.506;6.674;2023-02-28T11:08:06;97429.59;;;6.49;51.21
71917;BME280;59793;46.506;6.674;2023-02-28T11:10:36;97429.22;;;6.25;50.60
71917;BME280;59793;46.506;6.674;2023-02-28T11:13:02;97417.41;;;5.96;51.70
71917;BME280;59793;46.506;6.674;2023-02-28T11:15:31;97426.75;;;6.19;51.13
71917;BME280;59793;46.506;6.674;2023-02-28T11:18:00;97407.78;;;6.62;49.66
71917;BME280;59793;46.506;6.674;2023-02-28T11:20:29;97418.56;;;6.69;49.85
71917;BME280;59793;46.506;6.674;2023-02-28T11:22:58;97400.09;;;6.83;49.43
71917;BME280;59793;46.506;6.674;2023-02-28T11:25:37;97385.25;;;6.44;50.11
71917;BME280;59793;46.506;6.674;2023-02-28T11:28:33;97379.13;;;6.57;49.81
71917;BME280;59793;46.506;6.674;2023-02-28T11:33:52;97407.28;;;6.60;49.88
71917;BME280;59793;46.506;6.674;2023-02-28T11:36:23;97395.78;;;6.79;50.41
71917;BME280;59793;46.506;6.674;2023-02-28T11:38:58;97408.88;;;6.79;50.46
71917;BME280;59793;46.506;6.674;2023-02-28T11:46:38;97408.28;;;6.90;50.70
71917;BME280;59793;46.506;6.674;2023-02-28T11:49:28;97403.63;;;7.48;48.75
71917;BME280;59793;46.506;6.674;2023-02-28T11:52:21;97405.50;;;7.22;49.59
71917;BME280;59793;46.506;6.674;2023-02-28T12:13:39;97400.22;;;6.78;51.04
71917;BME280;59793;46.506;6.674;2023-02-28T12:16:37;97395.31;;;7.37;48.75
71917;BME280;59793;46.506;6.674;2023-02-28T12:19:10;97377.88;;;7.24;48.32
71917;BME280;59793;46.506;6.674;2023-02-28T12:27:07;97373.16;;;7.00;49.08
71917;BME280;59793;46.506;6.674;2023-02-28T12:29:45;97388.22;;;7.21;48.98
71917;BME280;59793;46.506;6.674;2023-02-28T12:32:18;97384.53;;;7.39;48.10
71917;BME280;59793;46.506;6.674;2023-02-28T12:34:55;97381.31;;;7.89;47.98
71917;BME280;59793;46.506;6.674;2023-02-28T12:37:45;97371.72;;;7.46;48.63
71917;BME280;59793;46.506;6.674;2023-02-28T12:40:16;97379.38;;;7.69;48.45
71917;BME280;59793;46.506;6.674;2023-02-28T12:42:46;97368.66;;;7.09;49.03
71917;BME280;59793;46.506;6.674;2023-02-28T12:45:20;97354.66;;;6.79;50.05
71917;BME280;59793;46.506;6.674;2023-02-28T12:47:51;97379.13;;;6.92;50.53
71917;BME280;59793;46.506;6.674;2023-02-28T12:50:18;97364.06;;;7.79;48.27
71917;BME280;59793;46.506;6.674;2023-02-28T12:53:05;97347.03;;;8.24;47.22
71917;BME280;59793;46.506;6.674;2023-02-28T12:56:09;97366.41;;;8.40;46.00
71917;BME280;59793;46.506;6.674;2023-02-28T12:58:46;97374.75;;;8.04;48.20
71917;BME280;59793;46.506;6.674;2023-02-28T13:07:00;97367.44;;;7.88;48.14
71917;BME280;59793;46.506;6.674;2023-02-28T13:09:40;97354.75;;;7.90;46.81
71917;BME280;59793;46.506;6.674;2023-02-28T13:12:15;97361.97;;;9.03;44.23
71917;BME280;59793;46.506;6.674;2023-02-28T13:14:42;97329.31;;;8.71;44.45
71917;BME280;59793;46.506;6.674;2023-02-28T13:19:57;97359.56;;;10.14;43.17
71917;BME280;59793;46.506;6.674;2023-02-28T13:22:40;97355.16;;;10.55;43.60
71917;BME280;59793;46.506;6.674;2023-02-28T13:28:11;97342.34;;;10.81;39.50
71917;BME280;59793;46.506;6.674;2023-02-28T13:33:28;97351.94;;;9.51;43.22
71917;BME280;59793;46.506;6.674;2023-02-28T13:38:47;97350.84;;;9.52;44.14
71917;BME280;59793;46.506;6.674;2023-02-28T13:46:31;97344.59;;;8.69;44.04
71917;BME280;59793;46.506;6.674;2023-02-28T13:49:26;97363.16;;;8.43;44.64
71917;BME280;59793;46.506;6.674;2023-02-28T13:52:14;97331.56;;;8.31;44.67
71917;BME280;59793;46.506;6.674;2023-02-28T14:06:29;97338.72;;;8.22;45.47
71917;BME280;59793;46.506;6.674;2023-02-28T14:11:36;97379.38;;;7.69;47.12
71917;BME280;59793;46.506;6.674;2023-02-28T14:14:04;97365.59;;;7.80;47.30
71917;BME280;59793;46.506;6.674;2023-02-28T14:16:46;97377.44;;;7.95;47.20
71917;BME280;59793;46.506;6.674;2023-02-28T14:19:12;97371.88;;;8.26;46.11
71917;BME280;59793;46.506;6.674;2023-02-28T14:36:07;97362.94;;;7.33;48.46
71917;BME280;59793;46.506;6.674;2023-02-28T14:38:45;97351.06;;;7.36;48.63
71917;BME280;59793;46.506;6.674;2023-02-28T14:41:16;97358.38;;;7.69;48.26
71917;BME280;59793;46.506;6.674;2023-02-28T14:43:51;97354.59;;;8.25;46.47
71917;BME280;59793;46.506;6.674;2023-02-28T14:46:18;97358.19;;;8.50;45.43
71917;BME280;59793;46.506;6.674;2023-02-28T14:48:45;97368.81;;;8.75;45.11
71917;BME280;59793;46.506;6.674;2023-02-28T14:51:11;97360.09;;;8.83;44.59
71917;BME280;59793;46.506;6.674;2023-02-28T14:53:37;97331.16;;;9.25;44.08
71917;BME280;59793;46.506;6.674;2023-02-28T14:56:03;97358.41;;;9.53;43.71
71917;BME280;59793;46.506;6.674;2023-02-28T14:58:33;97304.75;;;9.21;43.36
71917;BME280;59793;46.506;6.674;2023-02-28T15:01:00;97355.56;;;9.58;42.91
71917;BME280;59793;46.506;6.674;2023-02-28T15:03:38;97351.53;;;10.10;42.12
71917;BME280;59793;46.506;6.674;2023-02-28T15:06:05;97367.91;;;10.28;40.79
71917;BME280;59793;46.506;6.674;2023-02-28T15:08:32;97360.22;;;10.11;41.50
71917;BME280;59793;46.506;6.674;2023-02-28T15:11:21;97354.72;;;9.79;42.01
71917;BME280;59793;46.506;6.674;2023-02-28T15:13:52;97363.59;;;9.29;42.76
71917;BME280;59793;46.506;6.674;2023-02-28T15:22:01;97364.03;;;8.56;44.21
71917;BME280;59793;46.506;6.674;2023-02-28T15:24:38;97360.59;;;7.96;45.76
71917;BME280;59793;46.506;6.674;2023-02-28T15:27:25;97330.97;;;7.57;46.40